sensor_id;sensor_type;location;lat;lon;timestamp;pressure;altitude;pressure_sealevel;temperature;humidity
18988;BME280;5494;51.796;10.952;2023-05-21T00:00:20;99286.38;;;12.07;100.00
18988;BME280;5494;51.796;10.952;2023-05-21T00:02:48;99287.22;;;12.08;100.00
18988;BME280;5494;51.796;10.952;2023-05-21T00:05:17;99295.16;;;12.05;100.00
18988;BME280;5494;51.796;10.952;2023-05-21T00:07:47;99293.66;;;12.01;100.00
18988;BME280;5494;51.796;10.952;2023-05-21T00:10:16;99285.00;;;12.00;100.00
18988;BME280;5494;51.796;10.952;2023-05-21T00:12:44;99285.84;;;12.01;100.00
18988;BME280;5494;51.796;10.952;2023-05-21T00:15:12;99282.22;;;12.03;100.00
18988;BME280;5494;51.796;10.952;2023-05-21T00:17:40;99277.84;;;12.04;100.00
18988;BME280;5494;51.796;10.952;2023-05-21T00:20:10;99273.88;;;11.97;100.00
18988;BME280;5494;51.796;10.952;2023-05-21T00:22:38;99270.59;;;11.93;100.00
18988;BME280;5494;51.796;10.952;2023-05-21T00:25:09;99272.44;;;11.91;100.00
18988;BME280;5494;51.796;10.952;2023-05-21T00:27:38;99270.75;;;11.90;100.00
18988;BME280;5494;51.796;10.952;2023-05-21T00:30:07;99268.97;;;11.91;100.00
18988;BME280;5494;51.796;10.952;2023-05-21T00:32:35;99271.00;;;11.86;100.00
18988;BME280;5494;51.796;10.952;2023-05-21T00:35:05;99265.19;;;11.80;100.00
18988;BME280;5494;51.796;10.952;2023-05-21T00:37:33;99269.28;;;11.84;100.00
18988;BME280;5494;51.796;10.952;2023-05-21T00:40:01;99267.00;;;11.78;100.00
18988;BME280;5494;51.796;10.952;2023-05-21T00:42:30;99257.38;;;11.80;100.00
18988;BME280;5494;51.796;10.952;2023-05-21T00:44:59;99251.13;;;11.83;100.00
18988;BME280;5494;51.796;10.952;2023-05-21T00:47:30;99247.94;;;11.78;100.00
18988;BME280;5494;51.796;10.952;2023-05-21T00:49:58;99247.25;;;11.74;100.00
18988;BME280;5494;51.796;10.952;2023-05-21T00:52:26;99248.00;;;11.76;100.00
18988;BME280;5494;51.796;10.952;2023-05-21T00:54:55;99245.34;;;11.78;100.00
18988;BME280;5494;51.796;10.952;2023-05-21T00:57:25;99240.47;;;11.70;100.00
18988;BME280;5494;51.796;10.952;2023-05-21T00:59:54;99236.97;;;11.71;100.00
18988;BME280;5494;51.796;10.952;2023-05-21T01:02:23;99240.19;;;11.76;100.00
18988;BME280;5494;51.796;10.952;2023-05-21T01:04:53;99229.31;;;11.68;100.00
18988;BME280;5494;51.796;10.952;2023-05-21T01:07:21;99233.91;;;11.63;100.00
18988;BME280;5494;51.796;10.952;2023-05-21T01:09:50;99231.38;;;11.62;100.00
18988;BME280;5494;51.796;10.952;2023-05-21T01:12:20;99224.50;;;11.61;100.00
18988;BME280;5494;51.796;10.952;2023-05-21T01:14:51;99233.75;;;11.66;100.00
18988;BME280;5494;51.796;10.952;2023-05-21T01:17:19;99225.41;;;11.60;100.00
18988;BME280;5494;51.796;10.952;2023-05-21T01:19:56;99235.06;;;11.58;100.00
18988;BME280;5494;51.796;10.952;2023-05-21T01:22:27;99231.47;;;11.60;100.00
18988;BME280;5494;51.796;10.952;2023-05-21T01:24:57;99232.53;;;11.56;100.00
18988;BME280;5494;51.796;10.952;2023-05-21T01:27:28;99233.53;;;11.54;100.00
18988;BME280;5494;51.796;10.952;2023-05-21T01:29:57;99238.03;;;11.50;100.00
18988;BME280;5494;51.796;10.952;2023-05-21T01:32:33;99219.75;;;11.52;100.00
18988;BME280;5494;51.796;10.952;2023-05-21T01:35:08;99220.91;;;11.46;100.00
18988;BME280;5494;51.796;10.952;2023-05-21T01:37:45;99221.88;;;11.43;100.00
18988;BME280;5494;51.796;10.952;2023-05-21T01:40:29;99229.78;;;11.42;100.00
18988;BME280;5494;51.796;10.952;2023-05-21T01:42:58;99224.50;;;11.43;100.00
18988;BME280;5494;51.796;10.952;2023-05-21T01:45:30;99226.44;;;11.40;100.00
18988;BME280;5494;51.796;10.952;2023-05-21T01:48:01;99215.06;;;11.41;100.00
18988;BME280;5494;51.796;10.952;2023-05-21T01:50:32;99226.97;;;11.47;100.00
18988;BME280;5494;51.796;10.952;2023-05-21T01:53:01;99219.03;;;11.48;100.00
18988;BME280;5494;51.796;10.952;2023-05-21T01:55:31;99214.94;;;11.44;100.00
18988;BME280;5494;51.796;10.952;2023-05-21T01:58:00;99217.66;;;11.41;100.00
18988;BME280;5494;51.796;10.952;2023-05-21T02:00:29;99217.66;;;11.41;100.00
18988;BME280;5494;51.796;10.952;2023-05-21T02:02:58;99218.38;;;11.44;100.00
18988;BME280;5494;51.796;10.952;2023-05-21T02:05:27;99217.53;;;11.44;100.00
18988;BME280;5494;51.796;10.952;2023-05-21T02:07:55;99216.63;;;11.45;100.00
18988;BME280;5494;51.796;10.952;2023-05-21T02:10:26;99215.00;;;11.42;100.00
18988;BME280;5494;51.796;10.952;2023-05-21T02:12:55;99212.94;;;11.49;100.00
18988;BME280;5494;51.796;10.952;2023-05-21T02:15:23;99211.34;;;11.47;100.00
18988;BME280;5494;51.796;10.952;2023-05-21T02:17:51;99207.88;;;11.46;100.00
18988;BME280;5494;51.796;10.952;2023-05-21T02:20:20;99199.31;;;11.44;100.00
18988;BME280;5494;51.796;10.952;2023-05-21T02:22:48;99205.44;;;11.43;100.00
18988;BME280;5494;51.796;10.952;2023-05-21T02:25:18;99203.00;;;11.40;100.00
18988;BME280;5494;51.796;10.952;2023-05-21T02:27:46;99203.06;;;11.38;100.00
18988;BME280;5494;51.796;10.952;2023-05-21T02:30:20;99205.59;;;11.40;100.00
18988;BME280;5494;51.796;10.952;2023-05-21T02:32:48;99202.91;;;11.41;100.00
18988;BME280;5494;51.796;10.952;2023-05-21T02:35:17;99205.44;;;11.43;100.00
18988;BME280;5494;51.796;10.952;2023-05-21T02:37:45;99205.28;;;11.46;100.00
18988;BME280;5494;51.796;10.952;2023-05-21T02:40:14;99202.50;;;11.49;100.00
18988;BME280;5494;51.796;10.952;2023-05-21T02:42:42;99199.44;;;11.41;100.00
18988;BME280;5494;51.796;10.952;2023-05-21T02:45:15;99204.66;;;11.41;100.00
18988;BME280;5494;51.796;10.952;2023-05-21T02:47:44;99204.38;;;11.47;100.00
18988;BME280;5494;51.796;10.952;2023-05-21T02:50:16;99204.44;;;11.45;100.00
18988;BME280;5494;51.796;10.952;2023-05-21T02:52:50;99189.19;;;11.55;100.00
18988;BME280;5494;51.796;10.952;2023-05-21T02:55:18;99197.09;;;11.54;100.00
18988;BME280;5494;51.796;10.952;2023-05-21T02:57:47;99183.38;;;11.50;100.00
18988;BME280;5494;51.796;10.952;2023-05-21T03:00:15;99201.47;;;11.53;100.00
18988;BME280;5494;51.796;10.952;2023-05-21T03:02:45;99193.41;;;11.58;100.00
18988;BME280;5494;51.796;10.952;2023-05-21T03:05:14;99190.88;;;11.56;100.00
18988;BME280;5494;51.796;10.952;2023-05-21T03:07:43;99191.88;;;11.54;100.00
18988;BME280;5494;51.796;10.952;2023-05-21T03:10:11;99185.00;;;11.53;100.00
18988;BME280;5494;51.796;10.952;2023-05-21T03:12:39;99190.13;;;11.54;100.00
18988;BME280;5494;51.796;10.952;2023-05-21T03:15:09;99197.31;;;11.49;100.00
18988;BME280;5494;51.796;10.952;2023-05-21T03:17:37;99198.06;;;11.51;100.00
18988;BME280;5494;51.796;10.952;2023-05-21T03:20:09;99187.53;;;11.54;100.00
18988;BME280;5494;51.796;10.952;2023-05-21T03:22:42;99191.88;;;11.54;100.00
18988;BME280;5494;51.796;10.952;2023-05-21T03:25:11;99193.56;;;11.55;100.00
18988;BME280;5494;51.796;10.952;2023-05-21T03:27:39;99182.97;;;11.58;100.00
18988;BME280;5494;51.796;10.952;2023-05-21T03:30:23;99181.22;;;11.58;100.00
18988;BME280;5494;51.796;10.952;2023-05-21T03:33:09;99179.41;;;11.60;100.00
18988;BME280;5494;51.796;10.952;2023-05-21T03:35:39;99181.16;;;11.60;100.00
18988;BME280;5494;51.796;10.952;2023-05-21T03:38:07;99184.34;;;11.65;100.00
18988;BME280;5494;51.796;10.952;2023-05-21T03:40:35;99179.66;;;11.71;100.00
18988;BME280;5494;51.796;10.952;2023-05-21T03:43:04;99188.03;;;11.78;100.00
18988;BME280;5494;51.796;10.952;2023-05-21T03:45:32;99173.75;;;11.85;100.00
18988;BME280;5494;51.796;10.952;2023-05-21T03:48:23;99176.38;;;11.85;100.00
18988;BME280;5494;51.796;10.952;2023-05-21T03:50:55;99180.41;;;11.91;100.00
18988;BME280;5494;51.796;10.952;2023-05-21T03:53:24;99182.63;;;11.98;100.00
18988;BME280;5494;51.796;10.952;2023-05-21T03:55:52;99176.22;;;12.04;100.00
18988;BME280;5494;51.796;10.952;2023-05-21T03:58:23;99179.44;;;12.09;100.00
18988;BME280;5494;51.796;10.952;2023-05-21T04:00:52;99187.84;;;12.14;100.00
18988;BME280;5494;51.796;10.952;2023-05-21T04:03:21;99192.41;;;12.26;100.00
18988;BME280;5494;51.796;10.952;2023-05-21T04:05:49;99189.78;;;12.26;100.00
18988;BME280;5494;51.796;10.952;2023-05-21T04:08:18;99191.56;;;12.26;100.00
18988;BME280;5494;51.796;10.952;2023-05-21T04:10:47;99188.72;;;12.30;100.00
18988;BME280;5494;51.796;10.952;2023-05-21T04:13:18;99183.31;;;12.33;100.00
18988;BME280;5494;51.796;10.952;2023-05-21T04:15:47;99187.34;;;12.39;100.00
18988;BME280;5494;51.796;10.952;2023-05-21T04:18:16;99190.22;;;12.50;100.00
18988;BME280;5494;51.796;10.952;2023-05-21T04:20:46;99188.28;;;12.53;100.00
18988;BME280;5494;51.796;10.952;2023-05-21T04:23:15;99181.16;;;12.57;100.00
18988;BME280;5494;51.796;10.952;2023-05-21T04:25:45;99195.19;;;12.70;100.00
18988;BME280;5494;51.796;10.952;2023-05-21T04:28:18;99198.72;;;12.85;100.00
18988;BME280;5494;51.796;10.952;2023-05-21T04:30:47;99197.44;;;12.92;100.00
18988;BME280;5494;51.796;10.952;2023-05-21T04:33:15;99198.41;;;13.05;100.00
18988;BME280;5494;51.796;10.952;2023-05-21T04:35:46;99201.09;;;13.19;100.00
18988;BME280;5494;51.796;10.952;2023-05-21T04:38:16;99191.16;;;13.26;100.00
18988;BME280;5494;51.796;10.952;2023-05-21T04:40:49;99198.91;;;13.41;100.00
18988;BME280;5494;51.796;10.952;2023-05-21T04:43:18;99200.63;;;13.57;100.00
18988;BME280;5494;51.796;10.952;2023-05-21T04:45:52;99197.38;;;13.67;100.00
18988;BME280;5494;51.796;10.952;2023-05-21T04:48:21;99196.72;;;13.92;100.00
18988;BME280;5494;51.796;10.952;2023-05-21T04:50:53;99197.28;;;14.26;100.00
18988;BME280;5494;51.796;10.952;2023-05-21T04:53:22;99194.56;;;14.82;100.00
18988;BME280;5494;51.796;10.952;2023-05-21T04:55:53;99188.22;;;15.51;100.00
18988;BME280;5494;51.796;10.952;2023-05-21T04:58:21;99186.03;;;16.21;100.00
18988;BME280;5494;51.796;10.952;2023-05-21T05:00:49;99181.91;;;16.79;100.00
18988;BME280;5494;51.796;10.952;2023-05-21T05:03:19;99178.91;;;17.42;100.00
18988;BME280;5494;51.796;10.952;2023-05-21T05:05:47;99185.09;;;17.87;100.00
18988;BME280;5494;51.796;10.952;2023-05-21T05:08:15;99173.94;;;18.39;100.00
18988;BME280;5494;51.796;10.952;2023-05-21T05:10:43;99169.56;;;18.94;100.00
18988;BME280;5494;51.796;10.952;2023-05-21T05:13:13;99157.56;;;19.22;95.30
18988;BME280;5494;51.796;10.952;2023-05-21T05:15:42;99157.97;;;19.59;89.35
18988;BME280;5494;51.796;10.952;2023-05-21T05:18:10;99158.38;;;19.43;86.51
18988;BME280;5494;51.796;10.952;2023-05-21T05:20:39;99159.16;;;19.34;87.14
18988;BME280;5494;51.796;10.952;2023-05-21T05:23:07;99162.41;;;19.58;84.30
18988;BME280;5494;51.796;10.952;2023-05-21T05:25:35;99161.31;;;19.61;85.71
18988;BME280;5494;51.796;10.952;2023-05-21T05:28:04;99169.13;;;19.31;84.44
18988;BME280;5494;51.796;10.952;2023-05-21T05:30:33;99172.13;;;18.73;91.28
18988;BME280;5494;51.796;10.952;2023-05-21T05:33:13;99165.34;;;18.60;90.11
18988;BME280;5494;51.796;10.952;2023-05-21T05:35:41;99168.50;;;18.85;91.42
18988;BME280;5494;51.796;10.952;2023-05-21T05:38:09;99166.31;;;18.91;86.86
18988;BME280;5494;51.796;10.952;2023-05-21T05:40:40;99164.75;;;18.45;91.46
18988;BME280;5494;51.796;10.952;2023-05-21T05:43:08;99152.34;;;19.11;91.39
18988;BME280;5494;51.796;10.952;2023-05-21T05:45:38;99147.06;;;20.03;79.63
18988;BME280;5494;51.796;10.952;2023-05-21T05:48:11;99159.38;;;18.89;85.72
18988;BME280;5494;51.796;10.952;2023-05-21T05:50:40;99162.53;;;17.96;95.22
18988;BME280;5494;51.796;10.952;2023-05-21T05:53:08;99164.94;;;17.42;100.00
18988;BME280;5494;51.796;10.952;2023-05-21T05:55:39;99154.81;;;17.13;100.00
18988;BME280;5494;51.796;10.952;2023-05-21T05:58:07;99161.97;;;16.87;100.00
18988;BME280;5494;51.796;10.952;2023-05-21T06:00:48;99164.50;;;16.89;100.00
18988;BME280;5494;51.796;10.952;2023-05-21T06:03:17;99160.28;;;17.45;100.00
18988;BME280;5494;51.796;10.952;2023-05-21T06:05:45;99163.00;;;17.32;100.00
18988;BME280;5494;51.796;10.952;2023-05-21T06:08:14;99159.88;;;17.27;100.00
18988;BME280;5494;51.796;10.952;2023-05-21T06:10:42;99159.56;;;17.08;100.00
18988;BME280;5494;51.796;10.952;2023-05-21T06:13:10;99170.41;;;17.27;100.00
18988;BME280;5494;51.796;10.952;2023-05-21T06:15:38;99165.41;;;17.01;100.00
18988;BME280;5494;51.796;10.952;2023-05-21T06:18:10;99158.69;;;17.43;100.00
18988;BME280;5494;51.796;10.952;2023-05-21T06:20:38;99164.13;;;17.17;100.00
18988;BME280;5494;51.796;10.952;2023-05-21T06:23:07;99160.84;;;17.03;100.00
18988;BME280;5494;51.796;10.952;2023-05-21T06:25:35;99166.59;;;16.73;100.00
18988;BME280;5494;51.796;10.952;2023-05-21T06:28:04;99161.69;;;17.03;100.00
18988;BME280;5494;51.796;10.952;2023-05-21T06:30:33;99154.63;;;17.74;100.00
18988;BME280;5494;51.796;10.952;2023-05-21T06:33:05;99155.59;;;17.84;99.05
18988;BME280;5494;51.796;10.952;2023-05-21T06:35:35;99165.84;;;18.20;97.19
18988;BME280;5494;51.796;10.952;2023-05-21T06:38:07;99157.56;;;18.90;93.20
18988;BME280;5494;51.796;10.952;2023-05-21T06:40:35;99166.44;;;18.57;90.94
18988;BME280;5494;51.796;10.952;2023-05-21T06:43:03;99167.97;;;18.26;95.63
18988;BME280;5494;51.796;10.952;2023-05-21T06:45:51;99173.38;;;17.69;100.00
18988;BME280;5494;51.796;10.952;2023-05-21T06:48:31;99172.19;;;17.84;100.00
18988;BME280;5494;51.796;10.952;2023-05-21T06:51:00;99166.63;;;17.54;100.00
18988;BME280;5494;51.796;10.952;2023-05-21T06:53:28;99169.47;;;17.40;100.00
18988;BME280;5494;51.796;10.952;2023-05-21T06:55:56;99168.41;;;17.42;100.00
18988;BME280;5494;51.796;10.952;2023-05-21T06:58:54;99176.28;;;17.07;100.00
18988;BME280;5494;51.796;10.952;2023-05-21T07:01:22;99169.38;;;17.17;100.00
18988;BME280;5494;51.796;10.952;2023-05-21T07:03:50;99166.06;;;17.61;100.00
18988;BME280;5494;51.796;10.952;2023-05-21T07:06:24;99159.69;;;17.42;100.00
18988;BME280;5494;51.796;10.952;2023-05-21T07:08:53;99158.56;;;17.68;100.00
18988;BME280;5494;51.796;10.952;2023-05-21T07:11:22;99163.81;;;17.79;100.00
18988;BME280;5494;51.796;10.952;2023-05-21T07:13:58;99169.94;;;17.91;100.00
18988;BME280;5494;51.796;10.952;2023-05-21T07:16:27;99160.25;;;18.02;100.00
18988;BME280;5494;51.796;10.952;2023-05-21T07:18:56;99159.69;;;18.64;96.37
18988;BME280;5494;51.796;10.952;2023-05-21T07:21:28;99163.34;;;18.30;97.76
18988;BME280;5494;51.796;10.952;2023-05-21T07:23:56;99151.94;;;18.52;96.85
18988;BME280;5494;51.796;10.952;2023-05-21T07:26:24;99163.66;;;18.47;94.03
18988;BME280;5494;51.796;10.952;2023-05-21T07:28:53;99157.16;;;18.74;94.05
18988;BME280;5494;51.796;10.952;2023-05-21T07:31:21;99160.03;;;18.71;92.45
18988;BME280;5494;51.796;10.952;2023-05-21T07:33:51;99157.31;;;18.50;95.36
18988;BME280;5494;51.796;10.952;2023-05-21T07:36:24;99158.19;;;18.28;98.45
18988;BME280;5494;51.796;10.952;2023-05-21T07:38:53;99155.16;;;18.33;98.27
18988;BME280;5494;51.796;10.952;2023-05-21T07:41:21;99156.16;;;18.32;100.00
18988;BME280;5494;51.796;10.952;2023-05-21T07:43:50;99151.63;;;18.00;100.00
18988;BME280;5494;51.796;10.952;2023-05-21T07:46:19;99153.66;;;18.08;100.00
18988;BME280;5494;51.796;10.952;2023-05-21T07:48:51;99148.16;;;18.00;100.00
18988;BME280;5494;51.796;10.952;2023-05-21T07:51:19;99155.22;;;18.76;100.00
18988;BME280;5494;51.796;10.952;2023-05-21T07:53:48;99155.28;;;18.97;97.02
18988;BME280;5494;51.796;10.952;2023-05-21T07:56:25;99153.84;;;18.61;96.45
18988;BME280;5494;51.796;10.952;2023-05-21T07:58:53;99163.16;;;19.08;96.17
18988;BME280;5494;51.796;10.952;2023-05-21T08:01:21;99163.19;;;18.65;98.20
18988;BME280;5494;51.796;10.952;2023-05-21T08:03:51;99159.47;;;18.45;100.00
18988;BME280;5494;51.796;10.952;2023-05-21T08:06:19;99163.16;;;18.54;100.00
18988;BME280;5494;51.796;10.952;2023-05-21T08:08:50;99153.81;;;19.56;94.84
18988;BME280;5494;51.796;10.952;2023-05-21T08:11:20;99157.75;;;19.72;90.42
18988;BME280;5494;51.796;10.952;2023-05-21T08:13:49;99155.88;;;19.83;91.01
18988;BME280;5494;51.796;10.952;2023-05-21T08:16:17;99159.16;;;20.36;85.54
18988;BME280;5494;51.796;10.952;2023-05-21T08:18:45;99158.97;;;20.97;83.16
18988;BME280;5494;51.796;10.952;2023-05-21T08:21:14;99152.16;;;21.43;80.83
18988;BME280;5494;51.796;10.952;2023-05-21T08:23:42;99153.06;;;21.71;79.08
18988;BME280;5494;51.796;10.952;2023-05-21T08:26:12;99153.13;;;21.88;75.05
18988;BME280;5494;51.796;10.952;2023-05-21T08:28:42;99156.13;;;21.66;76.06
18988;BME280;5494;51.796;10.952;2023-05-21T08:31:10;99158.50;;;22.16;73.16
18988;BME280;5494;51.796;10.952;2023-05-21T08:33:49;99160.16;;;22.89;69.42
18988;BME280;5494;51.796;10.952;2023-05-21T08:36:21;99145.16;;;23.59;66.16
18988;BME280;5494;51.796;10.952;2023-05-21T08:38:55;99156.25;;;23.54;63.68
18988;BME280;5494;51.796;10.952;2023-05-21T08:41:37;99149.59;;;23.50;64.19
18988;BME280;5494;51.796;10.952;2023-05-21T08:44:11;99147.78;;;23.77;61.73
18988;BME280;5494;51.796;10.952;2023-05-21T08:46:40;99145.28;;;24.51;61.18
18988;BME280;5494;51.796;10.952;2023-05-21T08:49:12;99156.34;;;24.30;59.32
18988;BME280;5494;51.796;10.952;2023-05-21T08:51:43;99145.34;;;23.66;62.21
18988;BME280;5494;51.796;10.952;2023-05-21T08:54:12;99149.16;;;22.84;67.59
18988;BME280;5494;51.796;10.952;2023-05-21T08:56:43;99160.81;;;23.27;67.62
18988;BME280;5494;51.796;10.952;2023-05-21T08:59:15;99146.47;;;23.37;64.34
18988;BME280;5494;51.796;10.952;2023-05-21T09:01:44;99142.66;;;23.83;61.49
18988;BME280;5494;51.796;10.952;2023-05-21T09:04:20;99147.47;;;23.18;65.18
18988;BME280;5494;51.796;10.952;2023-05-21T09:06:53;99138.53;;;23.89;63.39
18988;BME280;5494;51.796;10.952;2023-05-21T09:09:51;99149.84;;;23.22;63.94
18988;BME280;5494;51.796;10.952;2023-05-21T09:12:23;99149.00;;;22.68;68.57
18988;BME280;5494;51.796;10.952;2023-05-21T09:14:52;99151.00;;;22.11;73.86
18988;BME280;5494;51.796;10.952;2023-05-21T09:17:25;99141.00;;;23.39;68.41
18988;BME280;5494;51.796;10.952;2023-05-21T09:20:10;99146.09;;;23.32;66.27
18988;BME280;5494;51.796;10.952;2023-05-21T09:22:45;99138.41;;;23.65;65.75
18988;BME280;5494;51.796;10.952;2023-05-21T09:25:20;99135.75;;;23.47;65.09
18988;BME280;5494;51.796;10.952;2023-05-21T09:27:50;99146.06;;;22.44;72.95
18988;BME280;5494;51.796;10.952;2023-05-21T09:30:18;99128.91;;;23.36;70.15
18988;BME280;5494;51.796;10.952;2023-05-21T09:32:55;99138.34;;;23.57;66.36
18988;BME280;5494;51.796;10.952;2023-05-21T09:35:25;99141.59;;;23.07;71.64
18988;BME280;5494;51.796;10.952;2023-05-21T09:37:54;99137.97;;;23.51;68.02
18988;BME280;5494;51.796;10.952;2023-05-21T09:40:23;99149.25;;;22.92;71.23
18988;BME280;5494;51.796;10.952;2023-05-21T09:42:56;99142.81;;;22.95;72.91
18988;BME280;5494;51.796;10.952;2023-05-21T09:45:28;99133.38;;;23.36;68.57
18988;BME280;5494;51.796;10.952;2023-05-21T09:47:58;99128.63;;;23.99;67.22
18988;BME280;5494;51.796;10.952;2023-05-21T09:50:27;99123.97;;;25.01;61.04
18988;BME280;5494;51.796;10.952;2023-05-21T09:52:55;99130.63;;;24.31;60.39
18988;BME280;5494;51.796;10.952;2023-05-21T09:55:25;99135.56;;;23.40;65.90
18988;BME280;5494;51.796;10.952;2023-05-21T09:57:53;99139.50;;;23.54;66.92
18988;BME280;5494;51.796;10.952;2023-05-21T10:00:26;99120.88;;;24.06;62.90
18988;BME280;5494;51.796;10.952;2023-05-21T10:02:56;99120.47;;;23.67;64.75
18988;BME280;5494;51.796;10.952;2023-05-21T10:05:27;99126.88;;;23.82;65.83
18988;BME280;5494;51.796;10.952;2023-05-21T10:07:59;99126.00;;;23.73;66.90
18988;BME280;5494;51.796;10.952;2023-05-21T10:10:29;99129.38;;;24.17;63.38
18988;BME280;5494;51.796;10.952;2023-05-21T10:13:03;99119.19;;;24.39;61.11
18988;BME280;5494;51.796;10.952;2023-05-21T10:15:41;99121.22;;;24.77;60.06
18988;BME280;5494;51.796;10.952;2023-05-21T10:18:12;99114.63;;;24.89;59.02
18988;BME280;5494;51.796;10.952;2023-05-21T10:20:41;99109.94;;;25.64;57.12
18988;BME280;5494;51.796;10.952;2023-05-21T10:23:09;99113.28;;;25.42;56.14
18988;BME280;5494;51.796;10.952;2023-05-21T10:25:40;99122.41;;;24.83;61.45
18988;BME280;5494;51.796;10.952;2023-05-21T10:28:08;99109.44;;;25.61;57.52
18988;BME280;5494;51.796;10.952;2023-05-21T10:30:38;99111.25;;;25.68;57.27
18988;BME280;5494;51.796;10.952;2023-05-21T10:33:06;99106.72;;;25.85;58.77
18988;BME280;5494;51.796;10.952;2023-05-21T10:35:37;99102.13;;;25.71;55.19
18988;BME280;5494;51.796;10.952;2023-05-21T10:38:08;99095.84;;;25.15;59.50
18988;BME280;5494;51.796;10.952;2023-05-21T10:40:36;99106.63;;;25.46;56.63
18988;BME280;5494;51.796;10.952;2023-05-21T10:43:46;99102.31;;;24.88;58.65
18988;BME280;5494;51.796;10.952;2023-05-21T10:50:09;99100.94;;;24.52;61.57
18988;BME280;5494;51.796;10.952;2023-05-21T10:52:58;99099.50;;;24.90;60.41
18988;BME280;5494;51.796;10.952;2023-05-21T10:55:41;99088.03;;;24.97;60.61
18988;BME280;5494;51.796;10.952;2023-05-21T10:58:50;99095.94;;;24.41;63.85
18988;BME280;5494;51.796;10.952;2023-05-21T11:01:27;99092.41;;;24.32;64.23
18988;BME280;5494;51.796;10.952;2023-05-21T11:03:57;99103.81;;;24.91;61.96
18988;BME280;5494;51.796;10.952;2023-05-21T11:06:26;99088.03;;;25.14;59.69
18988;BME280;5494;51.796;10.952;2023-05-21T11:08:54;99089.31;;;24.77;61.24
18988;BME280;5494;51.796;10.952;2023-05-21T11:11:50;99089.53;;;25.00;60.51
18988;BME280;5494;51.796;10.952;2023-05-21T11:14:32;99090.69;;;24.89;65.34
18988;BME280;5494;51.796;10.952;2023-05-21T11:17:03;99109.19;;;24.32;65.51
18988;BME280;5494;51.796;10.952;2023-05-21T11:19:40;99093.69;;;23.86;68.50
18988;BME280;5494;51.796;10.952;2023-05-21T11:22:20;99092.53;;;24.22;66.54
18988;BME280;5494;51.796;10.952;2023-05-21T11:24:50;99096.91;;;23.98;67.36
18988;BME280;5494;51.796;10.952;2023-05-21T11:27:32;99086.16;;;23.73;68.64
18988;BME280;5494;51.796;10.952;2023-05-21T11:30:05;99080.72;;;23.75;71.89
18988;BME280;5494;51.796;10.952;2023-05-21T11:32:36;99074.72;;;24.15;70.85
18988;BME280;5494;51.796;10.952;2023-05-21T11:35:07;99079.16;;;24.56;68.57
18988;BME280;5494;51.796;10.952;2023-05-21T11:37:37;99073.25;;;24.95;64.31
18988;BME280;5494;51.796;10.952;2023-05-21T11:40:18;99075.34;;;24.59;64.66
18988;BME280;5494;51.796;10.952;2023-05-21T11:42:50;99075.91;;;24.95;64.38
18988;BME280;5494;51.796;10.952;2023-05-21T11:45:20;99066.22;;;25.34;61.29
18988;BME280;5494;51.796;10.952;2023-05-21T11:47:49;99065.28;;;25.74;59.16
18988;BME280;5494;51.796;10.952;2023-05-21T11:50:19;99071.53;;;25.98;59.31
18988;BME280;5494;51.796;10.952;2023-05-21T11:52:48;99066.72;;;26.32;57.13
18988;BME280;5494;51.796;10.952;2023-05-21T11:55:21;99063.69;;;26.35;55.84
18988;BME280;5494;51.796;10.952;2023-05-21T11:57:53;99074.09;;;26.14;54.31
18988;BME280;5494;51.796;10.952;2023-05-21T12:00:21;99071.41;;;25.91;53.75
18988;BME280;5494;51.796;10.952;2023-05-21T12:02:51;99067.13;;;26.13;55.00
18988;BME280;5494;51.796;10.952;2023-05-21T12:05:22;99077.59;;;25.83;53.62
18988;BME280;5494;51.796;10.952;2023-05-21T12:07:50;99072.34;;;25.43;56.93
18988;BME280;5494;51.796;10.952;2023-05-21T12:10:21;99061.25;;;25.86;54.66
18988;BME280;5494;51.796;10.952;2023-05-21T12:12:50;99068.56;;;25.93;56.12
18988;BME280;5494;51.796;10.952;2023-05-21T12:15:25;99062.66;;;25.66;56.27
18988;BME280;5494;51.796;10.952;2023-05-21T12:17:56;99049.56;;;25.32;54.47
18988;BME280;5494;51.796;10.952;2023-05-21T12:20:28;99053.59;;;24.88;57.41
18988;BME280;5494;51.796;10.952;2023-05-21T12:22:56;99051.44;;;24.75;60.12
18988;BME280;5494;51.796;10.952;2023-05-21T12:25:27;99040.25;;;25.36;55.93
18988;BME280;5494;51.796;10.952;2023-05-21T12:27:55;99043.88;;;25.60;55.49
18988;BME280;5494;51.796;10.952;2023-05-21T12:30:25;99047.06;;;25.94;55.94
18988;BME280;5494;51.796;10.952;2023-05-21T12:32:57;99046.16;;;26.10;54.48
18988;BME280;5494;51.796;10.952;2023-05-21T12:35:29;99044.75;;;25.91;53.54
18988;BME280;5494;51.796;10.952;2023-05-21T12:38:00;99040.41;;;25.98;52.30
18988;BME280;5494;51.796;10.952;2023-05-21T12:40:35;99041.25;;;25.91;51.86
18988;BME280;5494;51.796;10.952;2023-05-21T12:43:08;99044.06;;;25.50;52.61
18988;BME280;5494;51.796;10.952;2023-05-21T12:45:37;99040.28;;;25.28;50.97
18988;BME280;5494;51.796;10.952;2023-05-21T12:48:06;99036.13;;;24.85;53.65
18988;BME280;5494;51.796;10.952;2023-05-21T12:50:39;99036.47;;;25.23;53.50
18988;BME280;5494;51.796;10.952;2023-05-21T12:53:08;99036.78;;;25.20;52.84
18988;BME280;5494;51.796;10.952;2023-05-21T12:55:38;99042.44;;;25.25;54.92
18988;BME280;5494;51.796;10.952;2023-05-21T12:58:07;99042.47;;;25.00;55.54
18988;BME280;5494;51.796;10.952;2023-05-21T13:00:35;99028.13;;;25.26;55.81
18988;BME280;5494;51.796;10.952;2023-05-21T13:03:04;99029.59;;;25.44;54.18
18988;BME280;5494;51.796;10.952;2023-05-21T13:05:33;99029.91;;;25.58;54.26
18988;BME280;5494;51.796;10.952;2023-05-21T13:08:03;99034.44;;;25.33;52.77
18988;BME280;5494;51.796;10.952;2023-05-21T13:10:31;99035.78;;;25.21;54.30
18988;BME280;5494;51.796;10.952;2023-05-21T13:12:59;99027.78;;;25.37;53.23
18988;BME280;5494;51.796;10.952;2023-05-21T13:15:27;99029.69;;;25.67;52.97
18988;BME280;5494;51.796;10.952;2023-05-21T13:17:56;99029.09;;;25.33;53.26